createdAt,value
2022-08-14T00:00:40.807Z,37.52
2022-08-14T00:01:40.851Z,37.32
2022-08-14T00:02:40.796Z,37.62
2022-08-14T00:03:41.338Z,37.32
2022-08-14T00:04:42.421Z,37.32
2022-08-14T00:05:40.755Z,37.62
2022-08-14T00:06:40.744Z,37.62
2022-08-14T00:07:41.776Z,37.52
2022-08-14T00:08:44.376Z,37.52
2022-08-14T00:09:56.334Z,37.42
2022-08-14T00:10:53.030Z,37.72
2022-08-14T00:11:43.524Z,37.62
2022-08-14T00:12:40.680Z,37.62
2022-08-14T00:13:40.680Z,37.62
2022-08-14T00:14:40.678Z,37.82
2022-08-14T00:15:44.272Z,37.82
2022-08-14T00:16:44.875Z,37.32
2022-08-14T00:17:48.427Z,37.72
2022-08-14T00:19:06.823Z,37.42
2022-08-14T00:19:41.634Z,37.42
2022-08-14T00:20:42.903Z,37.72
2022-08-14T00:21:40.595Z,37.72
2022-08-14T00:22:56.429Z,37.34
2022-08-14T00:23:41.579Z,37.52
2022-08-14T00:24:40.556Z,37.52
2022-08-14T00:25:41.561Z,37.44
2022-08-14T00:26:40.529Z,37.93
2022-08-14T00:27:40.517Z,37.42
2022-08-14T00:28:40.507Z,37.54
2022-08-14T00:29:43.114Z,37.52
2022-08-14T00:30:42.798Z,37.52
2022-08-14T00:31:45.793Z,37.44
2022-08-14T00:32:52.811Z,37.44
2022-08-14T00:33:51.545Z,37.54
2022-08-14T00:34:47.040Z,37.72
2022-08-14T00:36:35.363Z,37.52
2022-08-14T00:36:49.446Z,37.82
2022-08-14T00:37:41.411Z,37.52
2022-08-14T00:38:40.399Z,37.74
2022-08-14T00:39:40.652Z,37.54
2022-08-14T00:40:40.377Z,37.42
2022-08-14T00:41:42.289Z,37.44
2022-08-14T00:42:55.213Z,37.24
2022-08-14T00:43:41.678Z,37.24
2022-08-14T00:44:40.334Z,37.44
2022-08-14T00:45:40.325Z,37.24
2022-08-14T00:46:40.315Z,37.44
2022-08-14T00:47:44.994Z,37.24
2022-08-14T00:48:41.306Z,37.23
2022-08-14T00:49:43.202Z,37.34
2022-08-14T00:50:40.271Z,37.34
2022-08-14T00:51:41.103Z,37.34
2022-08-14T00:52:40.247Z,37.44
2022-08-14T00:53:40.241Z,37.34
2022-08-14T00:54:40.231Z,37.34
2022-08-14T00:55:40.216Z,37.34
2022-08-14T00:56:40.207Z,37.54
2022-08-14T00:57:40.193Z,37.32
2022-08-14T00:58:45.134Z,37.54
2022-08-14T00:59:41.199Z,37.34
2022-08-14T01:00:47.221Z,37.34
2022-08-14T01:01:41.276Z,37.54
2022-08-14T01:02:40.139Z,37.34
2022-08-14T01:03:42.344Z,37.54
2022-08-14T01:04:54.178Z,37.32
2022-08-14T01:05:50.724Z,37.54
2022-08-14T01:06:41.096Z,37.34
2022-08-14T01:07:53.988Z,37.54
2022-08-14T01:08:51.960Z,37.54
2022-08-14T01:09:41.063Z,37.54
2022-08-14T01:10:40.289Z,37.54
2022-08-14T01:11:40.047Z,37.52
2022-08-14T01:12:41.098Z,37.24
2022-08-14T01:13:43.017Z,37.15
2022-08-14T01:14:40.732Z,37.34
2022-08-14T01:15:57.620Z,37.74
2022-08-14T01:16:41.010Z,37.23
2022-08-14T01:17:45.697Z,37.93
2022-08-14T01:18:39.966Z,37.34
2022-08-14T01:19:41.324Z,37.24
2022-08-14T01:20:40.933Z,37.34
2022-08-14T01:21:46.863Z,37.13
2022-08-14T01:22:40.956Z,37.24
2022-08-14T01:23:46.608Z,37.63
2022-08-14T01:24:40.903Z,37.74
2022-08-14T01:25:39.890Z,37.24
2022-08-14T01:26:39.883Z,37.24
2022-08-14T01:27:53.998Z,37.24
2022-08-14T01:28:54.225Z,37.93
2022-08-14T01:29:59.368Z,37.44
2022-08-14T01:30:40.836Z,37.74
2022-08-14T01:31:39.826Z,37.34
2022-08-14T01:32:42.673Z,37.44
2022-08-14T01:34:00.393Z,37.93
2022-08-14T01:35:19.130Z,37.84
2022-08-14T01:36:05.218Z,37.74
2022-08-14T01:36:40.772Z,37.74
2022-08-14T01:37:44.060Z,37.44
2022-08-14T01:38:39.750Z,37.74
2022-08-14T01:39:39.804Z,37.84
2022-08-14T01:40:41.974Z,37.74
2022-08-14T01:41:39.719Z,37.74
2022-08-14T01:42:39.707Z,37.74
2022-08-14T01:43:39.698Z,37.74
2022-08-14T01:44:41.319Z,37.74
2022-08-14T01:45:40.470Z,37.74
2022-08-14T01:46:39.670Z,38.03
2022-08-14T01:47:39.654Z,37.74
2022-08-14T01:48:39.642Z,37.74
2022-08-14T01:49:40.540Z,37.74
2022-08-14T01:50:40.622Z,37.74
2022-08-14T01:51:39.612Z,37.74
2022-08-14T01:52:59.933Z,37.74
2022-08-14T01:53:40.587Z,37.63
2022-08-14T01:54:39.577Z,37.93
2022-08-14T01:55:40.204Z,37.84
2022-08-14T01:56:39.910Z,37.74
2022-08-14T01:58:01.677Z,37.63
2022-08-14T01:58:55.661Z,37.74
2022-08-14T01:59:40.524Z,37.74
2022-08-14T02:00:39.516Z,37.84
2022-08-14T02:01:42.016Z,37.93
2022-08-14T02:02:40.491Z,37.74
2022-08-14T02:03:40.275Z,37.93
2022-08-14T02:04:54.651Z,37.74
2022-08-14T02:05:40.459Z,37.93
2022-08-14T02:06:39.450Z,37.93
2022-08-14T02:07:55.601Z,37.74
2022-08-14T02:08:52.864Z,38.03
2022-08-14T02:09:40.445Z,37.84
2022-08-14T02:10:47.238Z,38.03
2022-08-14T02:11:40.393Z,38.13
2022-08-14T02:12:39.440Z,38.03
2022-08-14T02:13:39.372Z,38.13
2022-08-14T02:14:39.363Z,37.93
2022-08-14T02:15:40.355Z,38.13
2022-08-14T02:16:39.451Z,37.93
2022-08-14T02:17:39.333Z,37.93
2022-08-14T02:18:39.318Z,37.74
2022-08-14T02:19:39.308Z,37.74
2022-08-14T02:20:39.297Z,37.63
2022-08-14T02:21:43.174Z,37.93
2022-08-14T02:22:43.859Z,37.93
2022-08-14T02:23:40.262Z,37.93
2022-08-14T02:24:45.067Z,38.03
2022-08-14T02:25:40.242Z,38.23
2022-08-14T02:28:19.212Z,37.93
2022-08-14T02:28:24.312Z,37.93
2022-08-14T02:28:57.941Z,38.03
2022-08-14T02:30:00.379Z,37.93
2022-08-14T02:30:40.186Z,38.13
2022-08-14T02:31:43.571Z,37.95
2022-08-14T02:32:39.167Z,38.03
2022-08-14T02:33:39.484Z,37.74
2022-08-14T02:34:39.144Z,37.93
2022-08-14T02:35:39.134Z,37.93
2022-08-14T02:37:03.949Z,37.63
2022-08-14T02:37:48.363Z,38.03
2022-08-14T02:38:40.108Z,37.93
2022-08-14T02:39:39.198Z,37.93
2022-08-14T02:40:39.080Z,37.63
2022-08-14T02:41:45.022Z,37.95
2022-08-14T02:42:40.057Z,37.74
2022-08-14T02:43:46.170Z,37.74
2022-08-14T02:44:40.066Z,37.63
2022-08-14T02:45:44.685Z,38.32
2022-08-14T02:46:41.132Z,37.65
2022-08-14T02:47:39.005Z,37.63
2022-08-14T02:49:01.650Z,38.42
2022-08-14T02:49:39.981Z,38.32
2022-08-14T02:50:38.979Z,38.13
2022-08-14T02:51:38.962Z,38.13
2022-08-14T02:52:57.242Z,37.74
2022-08-14T02:53:42.319Z,37.54
2022-08-14T02:54:38.931Z,37.54
2022-08-14T02:55:38.921Z,38.32
2022-08-14T02:57:16.603Z,37.84
2022-08-14T02:57:40.949Z,37.54
2022-08-14T02:58:38.886Z,38.42
2022-08-14T02:59:38.876Z,38.32
2022-08-14T03:00:40.121Z,37.84
2022-08-14T03:01:43.402Z,37.54
2022-08-14T03:02:49.422Z,37.84
2022-08-14T03:03:39.831Z,37.84
2022-08-14T03:04:38.821Z,38.03
2022-08-14T03:05:41.398Z,37.54
2022-08-14T03:06:57.120Z,38.42
2022-08-14T03:07:39.787Z,38.42
2022-08-14T03:08:38.805Z,37.84
2022-08-14T03:10:24.395Z,37.44
2022-08-14T03:10:41.916Z,37.84
2022-08-14T03:11:38.744Z,37.84
2022-08-14T03:12:39.734Z,37.84
2022-08-14T03:13:38.723Z,37.54
2022-08-14T03:14:38.719Z,38.03
2022-08-14T03:15:38.703Z,37.93
2022-08-14T03:16:38.692Z,38.13
2022-08-14T03:17:40.810Z,37.84
2022-08-14T03:18:39.668Z,37.93
2022-08-14T03:19:38.658Z,38.42
2022-08-14T03:20:38.677Z,37.93
2022-08-14T03:21:38.637Z,37.84
2022-08-14T03:22:38.728Z,37.85
2022-08-14T03:23:39.225Z,37.93
2022-08-14T03:24:38.606Z,37.93
2022-08-14T03:25:38.592Z,37.93
2022-08-14T03:26:38.589Z,38.23
2022-08-14T03:27:47.819Z,38.13
2022-08-14T03:28:39.560Z,37.93
2022-08-14T03:29:38.552Z,37.93
2022-08-14T03:30:40.894Z,37.95
2022-08-14T03:31:38.527Z,38.15
2022-08-14T03:32:38.584Z,38.13
2022-08-14T03:33:40.306Z,38.05
2022-08-14T03:34:52.798Z,37.74
2022-08-14T03:35:40.248Z,37.76
2022-08-14T03:37:38.315Z,37.84
2022-08-14T03:39:11.573Z,38.13
2022-08-14T03:39:13.172Z,38.15
2022-08-14T03:39:39.457Z,37.85
2022-08-14T03:40:38.433Z,37.84
2022-08-14T03:41:38.420Z,38.13
2022-08-14T03:42:38.471Z,38.15
2022-08-14T03:43:38.406Z,37.84
2022-08-14T03:45:19.483Z,37.85
2022-08-14T03:45:47.903Z,38.15
2022-08-14T03:46:52.405Z,37.65
2022-08-14T03:47:46.541Z,38.15
2022-08-14T03:48:40.495Z,37.85
2022-08-14T03:49:42.435Z,37.76
2022-08-14T03:50:38.325Z,37.63
2022-08-14T03:51:38.315Z,37.93
2022-08-14T03:52:40.792Z,37.84
2022-08-14T03:53:39.296Z,38.15
2022-08-14T03:54:38.313Z,37.93
2022-08-14T03:55:38.269Z,37.85
2022-08-14T03:56:38.260Z,37.84
2022-08-14T03:57:38.247Z,37.95
2022-08-14T03:58:38.238Z,37.84
2022-08-14T03:59:38.226Z,37.95
2022-08-14T04:00:43.049Z,38.44
2022-08-14T04:01:41.583Z,37.93
2022-08-14T04:02:47.481Z,37.93
2022-08-14T04:03:39.181Z,37.95
2022-08-14T04:04:38.172Z,38.13
2022-08-14T04:05:43.506Z,37.95
2022-08-14T04:06:44.528Z,37.95
2022-08-14T04:07:39.139Z,38.05
2022-08-14T04:08:39.127Z,38.44
2022-08-14T04:09:38.118Z,38.05
2022-08-14T04:10:38.108Z,38.13
2022-08-14T04:11:38.463Z,37.95
2022-08-14T04:12:38.108Z,37.93
2022-08-14T04:13:39.250Z,38.03
2022-08-14T04:14:38.064Z,38.03
2022-08-14T04:15:55.806Z,38.03
2022-08-14T04:16:39.042Z,38.23
2022-08-14T04:17:38.032Z,37.95
2022-08-14T04:18:38.028Z,37.95
2022-08-14T04:19:38.011Z,38.24
2022-08-14T04:20:51.619Z,38.05
2022-08-14T04:21:40.024Z,37.84
2022-08-14T04:22:38.977Z,37.93
2022-08-14T04:23:37.966Z,38.15
2022-08-14T04:24:39.140Z,37.84
2022-08-14T04:25:37.946Z,38.13
2022-08-14T04:26:43.134Z,38.03
2022-08-14T04:28:02.106Z,37.95
2022-08-14T04:29:08.113Z,37.93
2022-08-14T04:29:38.932Z,37.95
2022-08-14T04:30:37.892Z,38.05
2022-08-14T04:33:00.365Z,37.93
2022-08-14T04:33:01.779Z,38.03
2022-08-14T04:33:38.858Z,38.03
2022-08-14T04:34:37.850Z,37.95
2022-08-14T04:35:56.217Z,37.85
2022-08-14T04:36:38.825Z,38.05
2022-08-14T04:37:37.816Z,37.93
2022-08-14T04:38:39.661Z,37.93
2022-08-14T04:39:37.823Z,37.93
2022-08-14T04:40:40.536Z,37.84
2022-08-14T04:41:37.773Z,37.84
2022-08-14T04:42:38.762Z,37.93
2022-08-14T04:43:39.617Z,38.13
2022-08-14T04:44:37.741Z,38.13
2022-08-14T04:45:37.734Z,37.93
2022-08-14T04:46:56.789Z,38.13
2022-08-14T04:47:38.711Z,38.13
2022-08-14T04:48:43.659Z,37.84
2022-08-14T04:49:46.717Z,37.84
2022-08-14T04:50:45.141Z,38.13
2022-08-14T04:51:46.625Z,38.13
2022-08-14T04:52:38.655Z,38.13
2022-08-14T04:53:42.835Z,37.63
2022-08-14T04:54:38.633Z,38.13
2022-08-14T04:55:37.622Z,37.65
2022-08-14T04:56:37.613Z,37.93
2022-08-14T04:57:37.608Z,38.13
2022-08-14T04:58:37.590Z,37.63
2022-08-14T04:59:37.580Z,38.13
2022-08-14T05:00:38.567Z,38.03
2022-08-14T05:01:39.905Z,38.13
2022-08-14T05:02:37.681Z,38.15
2022-08-14T05:03:37.812Z,38.13
2022-08-14T05:04:39.873Z,38.13
2022-08-14T05:05:38.514Z,38.13
2022-08-14T05:06:39.713Z,38.13
2022-08-14T05:07:46.920Z,38.13
2022-08-14T05:08:50.369Z,38.13
2022-08-14T05:09:38.474Z,37.93
2022-08-14T05:10:42.238Z,38.13
2022-08-14T05:11:38.452Z,37.84
2022-08-14T05:13:12.694Z,37.84
2022-08-14T05:14:06.463Z,37.93
2022-08-14T05:14:46.206Z,38.13
2022-08-14T05:15:39.413Z,37.84
2022-08-14T05:16:37.397Z,37.93
2022-08-14T05:17:49.816Z,37.84
2022-08-14T05:19:24.745Z,37.74
2022-08-14T05:19:44.958Z,37.84
2022-08-14T05:21:55.154Z,37.84
2022-08-14T05:21:56.163Z,38.32
2022-08-14T05:22:38.332Z,38.32
2022-08-14T05:23:37.473Z,37.93
2022-08-14T05:24:37.311Z,38.32
2022-08-14T05:25:37.301Z,37.54
2022-08-14T05:26:37.305Z,37.74
2022-08-14T05:27:37.283Z,37.54
2022-08-14T05:28:37.268Z,37.44
2022-08-14T05:29:37.260Z,37.54
2022-08-14T05:30:37.247Z,37.93
2022-08-14T05:31:39.755Z,37.74
2022-08-14T05:32:37.241Z,37.93
2022-08-14T05:33:37.213Z,37.63
2022-08-14T05:34:37.206Z,38.03
2022-08-14T05:35:37.195Z,38.03
2022-08-14T05:36:38.179Z,37.93
2022-08-14T05:37:37.171Z,38.01
2022-08-14T05:38:38.705Z,37.93
2022-08-14T05:39:37.173Z,37.93
2022-08-14T05:40:37.139Z,37.93
2022-08-14T05:41:52.318Z,37.82
2022-08-14T05:42:38.119Z,37.84
2022-08-14T05:43:41.314Z,37.72
2022-08-14T05:44:37.102Z,37.72
2022-08-14T05:45:37.085Z,37.82
2022-08-14T05:46:37.074Z,37.62
2022-08-14T05:47:39.671Z,37.72
2022-08-14T05:48:43.353Z,37.32
2022-08-14T05:49:38.220Z,37.42
2022-08-14T05:50:37.029Z,37.42
2022-08-14T05:51:37.020Z,37.32
2022-08-14T05:52:39.353Z,37.32
2022-08-14T05:53:42.135Z,37.42
2022-08-14T05:54:36.988Z,37.13
2022-08-14T05:55:36.995Z,37.52
2022-08-14T05:56:37.967Z,37.23
2022-08-14T05:57:36.955Z,37.52
2022-08-14T05:58:41.355Z,37.52
2022-08-14T05:59:39.743Z,37.52
2022-08-14T06:00:39.515Z,37.52
2022-08-14T06:01:36.979Z,37.62
2022-08-14T06:02:36.945Z,37.52
2022-08-14T06:03:36.888Z,37.13
2022-08-14T06:04:36.897Z,37.52
2022-08-14T06:05:38.685Z,37.13
2022-08-14T06:06:36.871Z,37.32
2022-08-14T06:07:36.853Z,37.52
2022-08-14T06:08:41.416Z,37.52
2022-08-14T06:09:40.465Z,37.52
2022-08-14T06:10:36.814Z,37.52
2022-08-14T06:11:36.806Z,37.32
2022-08-14T06:13:05.713Z,37.52
2022-08-14T06:13:41.178Z,37.52
2022-08-14T06:14:37.772Z,37.32
2022-08-14T06:15:36.759Z,37.32
2022-08-14T06:16:36.749Z,37.32
2022-08-14T06:17:38.910Z,37.52
2022-08-14T06:18:37.726Z,37.32
2022-08-14T06:19:36.747Z,37.32
2022-08-14T06:20:36.706Z,37.32
2022-08-14T06:21:36.695Z,37.23
2022-08-14T06:22:36.702Z,37.32
2022-08-14T06:23:36.674Z,37.32
2022-08-14T06:24:36.671Z,37.23
2022-08-14T06:25:37.665Z,37.32
2022-08-14T06:26:36.644Z,37.42
2022-08-14T06:27:36.634Z,37.40
2022-08-14T06:28:36.622Z,37.42
2022-08-14T06:29:36.610Z,37.42
2022-08-14T06:30:46.401Z,37.50
2022-08-14T06:31:37.594Z,37.52
2022-08-14T06:32:39.301Z,37.42
2022-08-14T06:35:03.796Z,37.52
2022-08-14T06:35:09.624Z,37.42
2022-08-14T06:35:37.543Z,37.42
2022-08-14T06:36:36.534Z,37.40
2022-08-14T06:37:36.530Z,37.40
2022-08-14T06:38:36.511Z,37.72
2022-08-14T06:39:37.709Z,37.42
2022-08-14T06:40:36.575Z,37.72
2022-08-14T06:41:58.559Z,37.60
2022-08-14T06:42:37.489Z,37.70
2022-08-14T06:43:36.457Z,37.70
2022-08-14T06:44:36.447Z,37.60
2022-08-14T06:45:36.437Z,37.30
2022-08-14T06:46:37.276Z,37.50
2022-08-14T06:47:36.415Z,37.21
2022-08-14T06:48:36.427Z,37.21
2022-08-14T06:49:40.471Z,37.30
2022-08-14T06:50:37.382Z,37.30
2022-08-14T06:51:44.575Z,37.11
2022-08-14T06:52:37.359Z,37.60
2022-08-14T06:53:36.349Z,37.60
2022-08-14T06:54:36.369Z,37.30
2022-08-14T06:55:37.076Z,37.40
2022-08-14T06:56:36.318Z,37.40
2022-08-14T06:57:36.306Z,37.38
2022-08-14T06:58:36.295Z,37.21
2022-08-14T06:59:36.287Z,37.11
2022-08-14T07:00:36.279Z,37.30
2022-08-14T07:01:36.287Z,37.29
2022-08-14T07:02:36.253Z,37.29
2022-08-14T07:03:36.295Z,37.29
2022-08-14T07:04:36.232Z,37.38
2022-08-14T07:05:36.219Z,37.29
2022-08-14T07:06:46.264Z,37.29
2022-08-14T07:07:37.197Z,37.58
2022-08-14T07:08:36.187Z,37.68
2022-08-14T07:09:44.221Z,37.38
2022-08-14T07:10:37.166Z,37.88
2022-08-14T07:11:36.156Z,37.09
2022-08-14T07:12:56.282Z,37.98
2022-08-14T07:13:37.134Z,37.78
2022-08-14T07:14:36.124Z,37.68
2022-08-14T07:15:42.134Z,37.58
2022-08-14T07:16:37.100Z,38.07
2022-08-14T07:17:36.462Z,37.88
2022-08-14T07:18:36.089Z,37.78
2022-08-14T07:19:36.068Z,37.58
2022-08-14T07:20:36.060Z,37.38
2022-08-14T07:21:36.047Z,37.09
2022-08-14T07:22:56.156Z,37.78
2022-08-14T07:23:40.130Z,37.19
2022-08-14T07:24:37.015Z,37.29
2022-08-14T07:25:37.448Z,37.19
2022-08-14T07:26:35.993Z,36.90
2022-08-14T07:27:36.272Z,36.90
2022-08-14T07:28:42.955Z,36.70
2022-08-14T07:29:36.966Z,36.70
2022-08-14T07:30:35.957Z,37.58
2022-08-14T07:31:36.937Z,37.19
2022-08-14T07:32:35.928Z,36.70
2022-08-14T07:33:35.918Z,37.19
2022-08-14T07:34:40.628Z,36.70
2022-08-14T07:35:42.933Z,37.19
2022-08-14T07:36:36.887Z,36.70
2022-08-14T07:37:35.874Z,36.51
2022-08-14T07:38:37.569Z,36.60
2022-08-14T07:39:35.873Z,36.51
2022-08-14T07:40:35.842Z,36.51
2022-08-14T07:41:36.062Z,36.51
2022-08-14T07:42:35.887Z,36.51
2022-08-14T07:43:35.815Z,36.51
2022-08-14T07:44:46.304Z,36.49
2022-08-14T07:45:36.786Z,36.80
2022-08-14T07:46:35.777Z,36.80
2022-08-14T07:47:35.789Z,36.90
2022-08-14T07:48:35.756Z,36.78
2022-08-14T07:49:35.745Z,36.70
2022-08-14T07:50:37.175Z,36.99
2022-08-14T07:51:36.992Z,36.68
2022-08-14T07:52:35.713Z,36.90
2022-08-14T07:53:39.334Z,37.29
2022-08-14T07:54:36.689Z,37.07
2022-08-14T07:55:35.680Z,37.27
2022-08-14T07:56:47.538Z,37.19
2022-08-14T07:57:36.658Z,36.70
2022-08-14T07:58:39.043Z,36.98
2022-08-14T07:59:41.505Z,36.99
2022-08-14T08:00:37.227Z,36.98
2022-08-14T08:01:35.615Z,36.78
2022-08-14T08:02:35.679Z,36.98
2022-08-14T08:03:36.636Z,36.78
2022-08-14T08:04:35.585Z,36.78
2022-08-14T08:05:35.579Z,36.88
2022-08-14T08:06:35.564Z,36.78
2022-08-14T08:07:35.550Z,36.78
2022-08-14T08:08:35.542Z,36.98
2022-08-14T08:09:35.529Z,36.98
2022-08-14T08:11:02.275Z,36.78
2022-08-14T08:11:37.650Z,36.88
2022-08-14T08:12:35.497Z,36.98
2022-08-14T08:13:35.486Z,36.98
2022-08-14T08:14:55.466Z,36.88
2022-08-14T08:15:36.463Z,36.88
2022-08-14T08:16:35.454Z,36.78
2022-08-14T08:17:38.634Z,36.98
2022-08-14T08:18:36.430Z,36.98
2022-08-14T08:19:36.996Z,37.07
2022-08-14T08:20:35.410Z,36.98
2022-08-14T08:21:35.623Z,36.98
2022-08-14T08:22:35.391Z,36.88
2022-08-14T08:23:43.649Z,36.88
2022-08-14T08:24:36.366Z,36.98
2022-08-14T08:25:39.949Z,36.88
2022-08-14T08:26:36.346Z,36.98
2022-08-14T08:27:35.338Z,37.07
2022-08-14T08:28:35.325Z,37.07
2022-08-14T08:29:35.334Z,36.98
2022-08-14T08:30:35.303Z,37.07
2022-08-14T08:31:35.488Z,37.07
2022-08-14T08:32:35.281Z,36.88
2022-08-14T08:33:37.224Z,36.88
2022-08-14T08:34:35.282Z,36.88
2022-08-14T08:35:46.644Z,37.07
2022-08-14T08:36:36.237Z,36.98
2022-08-14T08:37:40.200Z,36.88
2022-08-14T08:39:18.268Z,36.78
2022-08-14T08:40:01.844Z,36.98
2022-08-14T08:40:36.254Z,36.78
2022-08-14T08:41:36.185Z,36.88
2022-08-14T08:42:38.899Z,36.78
2022-08-14T08:43:36.161Z,36.78
2022-08-14T08:44:35.151Z,36.78
2022-08-14T08:45:35.141Z,36.98
2022-08-14T08:46:35.683Z,36.98
2022-08-14T08:47:35.120Z,36.98
2022-08-14T08:48:36.546Z,36.98
2022-08-14T08:49:36.510Z,37.27
2022-08-14T08:51:05.849Z,36.98
2022-08-14T08:52:05.859Z,36.76
2022-08-14T08:53:05.829Z,36.66
2022-08-14T08:54:05.816Z,36.37
2022-08-14T08:55:05.805Z,36.47
2022-08-14T08:56:05.800Z,36.27
2022-08-14T08:57:05.790Z,36.47
2022-08-14T08:58:16.031Z,36.57
2022-08-14T08:59:06.760Z,36.27
2022-08-14T09:00:10.008Z,36.47
2022-08-14T09:01:06.783Z,36.27
2022-08-14T09:02:05.728Z,36.27
2022-08-14T09:03:05.717Z,36.08
2022-08-14T09:04:14.675Z,36.27
2022-08-14T09:05:06.694Z,36.18
2022-08-14T09:06:09.498Z,36.08
2022-08-14T09:07:09.944Z,36.37
2022-08-14T09:08:05.662Z,36.27
2022-08-14T09:09:05.651Z,36.27
2022-08-14T09:10:05.669Z,36.08
2022-08-14T09:11:18.906Z,36.27
2022-08-14T09:12:06.619Z,36.06
2022-08-14T09:13:06.607Z,36.47
2022-08-14T09:14:05.635Z,36.45
2022-08-14T09:15:12.138Z,36.35
2022-08-14T09:16:18.300Z,36.16
2022-08-14T09:17:06.563Z,36.16
2022-08-14T09:18:05.558Z,35.96
2022-08-14T09:19:05.547Z,36.16
2022-08-14T09:20:05.531Z,36.16
2022-08-14T09:21:05.519Z,35.96
2022-08-14T09:22:33.330Z,35.76
2022-08-14T09:23:06.497Z,35.96
2022-08-14T09:24:28.745Z,35.76
2022-08-14T09:25:06.901Z,35.86
2022-08-14T09:26:20.644Z,36.06
2022-08-14T09:27:06.736Z,35.96
2022-08-14T09:28:05.443Z,36.35
2022-08-14T09:29:05.437Z,35.86
2022-08-14T09:30:12.694Z,36.45
2022-08-14T09:31:17.316Z,36.45
2022-08-14T09:32:26.935Z,36.25
2022-08-14T09:33:10.891Z,36.25
2022-08-14T09:34:09.262Z,36.24
2022-08-14T09:35:08.579Z,36.25
2022-08-14T09:36:05.355Z,36.14
2022-08-14T09:37:05.346Z,36.33
2022-08-14T09:38:05.334Z,36.33
2022-08-14T09:39:05.351Z,36.04
2022-08-14T09:40:05.411Z,36.04
2022-08-14T09:41:05.300Z,36.04
2022-08-14T09:42:20.610Z,36.04
2022-08-14T09:43:06.278Z,36.04
2022-08-14T09:44:06.471Z,36.43
2022-08-14T09:45:08.748Z,36.43
2022-08-14T09:46:05.246Z,36.43
2022-08-14T09:47:05.238Z,36.33
2022-08-14T09:48:05.222Z,36.43
2022-08-14T09:49:05.215Z,36.04
2022-08-14T09:50:05.202Z,36.24
2022-08-14T09:51:44.874Z,36.04
2022-08-14T09:52:35.935Z,35.75
2022-08-14T09:54:18.851Z,36.04
2022-08-14T09:54:35.912Z,36.33
2022-08-14T09:55:41.374Z,35.65
2022-08-14T09:56:35.913Z,35.73
2022-08-14T09:57:34.881Z,36.22
2022-08-14T09:58:34.870Z,35.93
2022-08-14T09:59:36.237Z,36.12
2022-08-14T10:00:34.850Z,36.02
2022-08-14T10:01:34.843Z,35.53
2022-08-14T10:02:35.271Z,35.73
2022-08-14T10:03:34.869Z,35.63
2022-08-14T10:04:40.123Z,36.12
2022-08-14T10:05:39.112Z,35.63
2022-08-14T10:06:34.785Z,35.44
2022-08-14T10:07:34.773Z,35.63
2022-08-14T10:08:34.782Z,35.04
2022-08-14T10:09:35.439Z,35.44
2022-08-14T10:10:34.787Z,35.24
2022-08-14T10:11:35.239Z,35.04
2022-08-14T10:12:34.720Z,34.84
2022-08-14T10:13:42.959Z,36.32
2022-08-14T10:14:37.162Z,36.49
2022-08-14T10:15:34.691Z,34.93
2022-08-14T10:16:35.029Z,35.04
2022-08-14T10:17:38.969Z,36.20
2022-08-14T10:18:35.651Z,36.32
2022-08-14T10:19:35.646Z,35.42
2022-08-14T10:20:39.902Z,35.22
2022-08-14T10:21:38.684Z,35.71
2022-08-14T10:23:14.745Z,35.22
2022-08-14T10:23:35.646Z,35.13
2022-08-14T10:24:37.230Z,35.13
2022-08-14T10:25:34.574Z,35.22
2022-08-14T10:26:34.578Z,35.42
2022-08-14T10:27:34.553Z,35.22
2022-08-14T10:28:51.443Z,35.69
2022-08-14T10:29:35.532Z,35.61
2022-08-14T10:30:34.519Z,35.50
2022-08-14T10:31:44.797Z,35.11
2022-08-14T10:32:49.666Z,35.40
2022-08-14T10:33:35.487Z,35.11
2022-08-14T10:34:36.623Z,35.30
2022-08-14T10:35:34.466Z,35.30
2022-08-14T10:36:40.778Z,35.50
2022-08-14T10:37:35.442Z,35.21
2022-08-14T10:38:34.438Z,35.38
2022-08-14T10:39:34.443Z,35.77
2022-08-14T10:40:37.696Z,35.68
2022-08-14T10:41:34.398Z,35.58
2022-08-14T10:42:35.413Z,35.19
2022-08-14T10:43:34.378Z,35.58
2022-08-14T10:44:34.372Z,35.48
2022-08-14T10:45:35.765Z,34.29
2022-08-14T10:47:37.182Z,34.41
2022-08-14T10:47:40.691Z,34.78
2022-08-14T10:48:36.897Z,34.39
2022-08-14T10:49:34.312Z,34.67
2022-08-14T10:50:34.331Z,34.08
2022-08-14T10:51:36.186Z,34.47
2022-08-14T10:52:35.336Z,34.55
2022-08-14T10:53:34.277Z,34.45
2022-08-14T10:54:35.730Z,34.16
2022-08-14T10:55:34.250Z,34.34
2022-08-14T10:56:35.160Z,33.65
2022-08-14T10:57:34.226Z,34.05
2022-08-14T10:58:34.539Z,33.73
2022-08-14T10:59:37.234Z,32.57
2022-08-14T11:00:35.575Z,32.76
2022-08-14T11:01:38.382Z,32.76
2022-08-14T11:02:44.932Z,32.94
2022-08-14T11:03:55.419Z,32.26
2022-08-14T11:04:35.152Z,32.65
2022-08-14T11:05:34.138Z,33.02
2022-08-14T11:06:34.127Z,33.02
2022-08-14T11:07:34.116Z,32.15
2022-08-14T11:08:34.326Z,32.23
2022-08-14T11:09:34.096Z,32.52
2022-08-14T11:10:34.088Z,32.11
2022-08-14T11:11:37.055Z,31.61
2022-08-14T11:12:40.416Z,31.13
2022-08-14T11:13:35.057Z,31.88
2022-08-14T11:14:34.043Z,31.60
2022-08-14T11:15:34.030Z,30.72
2022-08-14T11:16:34.019Z,31.19
2022-08-14T11:17:34.009Z,31.38
2022-08-14T11:18:39.995Z,30.98
2022-08-14T11:19:35.057Z,31.08
2022-08-14T11:20:33.976Z,31.37
2022-08-14T11:21:34.348Z,30.29
2022-08-14T11:22:57.065Z,29.61
2022-08-14T11:23:38.369Z,30.00
2022-08-14T11:24:50.765Z,29.88
2022-08-14T11:25:44.070Z,30.08
2022-08-14T11:26:34.913Z,29.68
2022-08-14T11:27:35.412Z,29.10
2022-08-14T11:28:46.734Z,29.57
2022-08-14T11:29:36.041Z,29.85
2022-08-14T11:30:49.868Z,29.55
2022-08-14T11:31:38.751Z,29.84
2022-08-14T11:32:33.845Z,28.68
2022-08-14T11:33:33.838Z,28.77
2022-08-14T11:34:34.902Z,29.15
2022-08-14T11:35:43.855Z,29.15
2022-08-14T11:37:02.139Z,28.94
2022-08-14T11:37:40.599Z,28.94
2022-08-14T11:38:34.783Z,28.65
2022-08-14T11:39:37.029Z,28.05
2022-08-14T11:40:33.763Z,27.57
2022-08-14T11:41:33.748Z,27.67
2022-08-14T11:43:06.324Z,28.05
2022-08-14T11:43:34.732Z,27.94
2022-08-14T11:44:45.893Z,27.75
2022-08-14T11:45:37.207Z,27.66
2022-08-14T11:46:37.533Z,27.83
2022-08-14T11:47:35.315Z,27.06
2022-08-14T11:48:59.629Z,27.45
2022-08-14T11:49:34.984Z,26.86
2022-08-14T11:50:37.921Z,27.14
2022-08-14T11:51:35.989Z,27.04
2022-08-14T11:52:34.708Z,27.33
2022-08-14T11:53:34.620Z,27.13
2022-08-14T11:54:35.188Z,27.23
2022-08-14T11:55:33.605Z,27.33
2022-08-14T11:56:33.594Z,26.45
2022-08-14T11:57:33.579Z,27.73
2022-08-14T11:58:33.570Z,27.67
2022-08-14T11:59:34.105Z,27.86
2022-08-14T12:00:35.954Z,28.04
2022-08-14T12:01:38.054Z,28.64
2022-08-14T12:03:01.138Z,28.96
2022-08-14T12:03:46.203Z,29.36
2022-08-14T12:04:34.531Z,29.48
2022-08-14T12:05:33.491Z,29.98
2022-08-14T12:06:39.190Z,29.16
2022-08-14T12:07:34.562Z,29.13
2022-08-14T12:08:33.458Z,27.76
2022-08-14T12:09:33.448Z,28.23
2022-08-14T12:10:42.608Z,27.64
2022-08-14T12:11:34.429Z,27.44
2022-08-14T12:12:36.076Z,27.72
2022-08-14T12:13:34.698Z,27.34
2022-08-14T12:14:35.194Z,27.51
2022-08-14T12:15:33.383Z,27.13
2022-08-14T12:16:33.370Z,27.42
2022-08-14T12:17:34.242Z,28.03
2022-08-14T12:18:34.359Z,27.64
2022-08-14T12:19:33.819Z,27.14
2022-08-14T12:20:33.330Z,27.03
2022-08-14T12:21:33.317Z,27.33
2022-08-14T12:22:33.308Z,27.23
2022-08-14T12:23:33.296Z,27.42
2022-08-14T12:24:36.604Z,27.42
2022-08-14T12:25:34.763Z,27.33
2022-08-14T12:26:40.826Z,27.31
2022-08-14T12:27:34.252Z,26.82
2022-08-14T12:28:33.801Z,26.54
2022-08-14T12:29:34.809Z,26.92
2022-08-14T12:30:42.571Z,26.92
2022-08-14T12:31:36.169Z,26.81
2022-08-14T12:32:34.204Z,26.82
2022-08-14T12:33:34.110Z,26.54
2022-08-14T12:34:33.179Z,26.92
2022-08-14T12:35:33.185Z,26.73
2022-08-14T12:36:34.157Z,27.02
2022-08-14T12:37:33.148Z,27.22
2022-08-14T12:38:33.138Z,27.22
2022-08-14T12:39:39.649Z,27.22
2022-08-14T12:40:34.132Z,27.22
2022-08-14T12:41:34.304Z,27.42
2022-08-14T12:42:34.403Z,27.23
2022-08-14T12:43:33.088Z,27.23
2022-08-14T12:44:33.077Z,27.33
2022-08-14T12:45:33.066Z,27.34
2022-08-14T12:46:33.062Z,27.14
2022-08-14T12:47:33.048Z,27.72
2022-08-14T12:48:33.038Z,27.53
2022-08-14T12:49:33.031Z,27.93
2022-08-14T12:50:33.014Z,27.83
2022-08-14T12:51:33.006Z,27.94
2022-08-14T12:52:43.006Z,27.46
2022-08-14T12:53:38.231Z,28.54